METAR AND TAF INFORMATION
METAR FOR UAAH
ADDS - METARS form results

(1433 UTC 30 May 2020)
Data provider http://aviationweather.gov/metar/data/
 
Forecast for: UAAH (BALKHASH , KZ)
Text: TAF UAAH 300801Z 3009/3018 22005MPS CAVOK
Forecast period: 0900 to 1800 UTC 30 May 2020
Forecast type: FROM: standard forecast or significant change
Winds: from the SW (220 degrees) at 12 MPH (10 knots; 5.1 m/s)
Visibility: 6 or more miles 10+ km)
Ceiling: unknown
Clouds: missing
Weather: NSW  (no significant weather)

 AIRPORT MAP

 RUNWAY INFORMATION

 AIRPORT FREQUENCIES
Type TWR Name TWR Frequency 128 MHZ

 AIRPORT NEAR NAVIGATION AIDS
Type NDB Name Balkhash Frequency 456 KHZ
Type VOR-DME Name Balkhash Frequency 113700 KHZ



2018 Air Astana Virtual Airline